Time;durP1;ratioP1;P1;durP2;ratioP2;P2;SDS_P1;SDS_P2;PMS_P1;PMS_P2;Temp;Humidity;BMP_temperature;BMP_pressure;BME280_temperature;BME280_humidity;BME280_pressure;Samples;Min_cycle;Max_cycle;Signal;HPM_P1;HPM_P2
2022/03/27 00:01:13;;;;;;;8.20;4.20;;;;;;;10.48;64.59;102425.53;2108757;28;20046;-93
2022/03/27 00:02:37;;;;;;;12.27;4.15;;;;;;;10.43;64.47;102427.09;2102514;28;20048;-93
2022/03/27 00:04:00;;;;;;;10.65;4.20;;;;;;;10.37;64.74;102420.69;2110003;28;20063;-93
2022/03/27 00:05:22;;;;;;;7.95;3.63;;;;;;;10.35;64.81;102425.03;2114682;28;20475;-92
2022/03/27 00:06:46;;;;;;;9.40;4.05;;;;;;;10.37;64.89;102425.09;2115924;27;20079;-93
2022/03/27 00:08:09;;;;;;;10.77;4.53;;;;;;;10.38;64.74;102427.78;2099549;28;20044;-93
2022/03/27 00:09:32;;;;;;;11.93;4.20;;;;;;;10.43;64.62;102427.09;2101395;28;20052;-93
2022/03/27 00:12:37;;;;;;;8.73;4.65;;;;;;;10.45;64.28;102430.69;2106240;28;20166;-92
2022/03/27 00:14:02;;;;;;;11.90;4.55;;;;;;;10.43;64.13;102420.06;2114781;27;20043;-94
2022/03/27 00:15:26;;;;;;;7.00;3.97;;;;;;;10.43;64.10;102420.06;2105074;28;20169;-93
2022/03/27 00:16:50;;;;;;;9.75;4.70;;;;;;;10.41;64.17;102426.13;2116346;27;20051;-93
2022/03/27 00:18:12;;;;;;;10.38;5.47;;;;;;;10.42;64.28;102420.91;2106070;28;20067;-91
2022/03/27 00:19:35;;;;;;;13.85;6.43;;;;;;;10.44;64.20;102420.94;2113340;28;20058;-94
2022/03/27 00:20:59;;;;;;;10.50;4.50;;;;;;;10.41;63.94;102418.19;2111373;28;20490;-92
2022/03/27 00:22:24;;;;;;;11.07;5.68;;;;;;;10.32;63.84;102416.97;2108389;28;20043;-93
2022/03/27 00:23:47;;;;;;;12.35;5.40;;;;;;;10.27;63.77;102420.25;2112300;28;20549;-94
2022/03/27 00:25:18;;;;;;;10.13;5.25;;;;;;;10.21;63.65;102418.25;2097873;28;20077;-91
2022/03/27 00:26:42;;;;;;;14.93;6.85;;;;;;;10.16;63.60;102421.50;2111033;27;20071;-90
2022/03/27 00:28:08;;;;;;;16.70;11.88;;;;;;;10.10;63.95;102424.75;2114738;28;20102;-92
2022/03/27 00:29:32;;;;;;;12.73;6.05;;;;;;;10.06;63.95;102419.25;2104154;28;20356;-91
2022/03/27 00:30:58;;;;;;;14.65;7.05;;;;;;;10.02;63.85;102412.06;2099088;28;20040;-91
2022/03/27 00:32:23;;;;;;;7.95;5.38;;;;;;;10.03;63.97;102413.88;2110751;28;20059;-92
2022/03/27 00:33:49;;;;;;;9.60;4.70;;;;;;;10.02;63.77;102406.78;2109809;28;20490;-92
2022/03/27 00:35:11;;;;;;;12.57;5.38;;;;;;;10.00;63.67;102412.88;2103425;28;20647;-92
2022/03/27 00:36:34;;;;;;;11.27;4.20;;;;;;;9.97;63.64;102406.59;2099738;28;20048;-93
2022/03/27 00:38:04;;;;;;;8.30;4.22;;;;;;;9.94;63.57;102402.06;2109456;28;20044;-93
2022/03/27 00:39:27;;;;;;;9.38;4.72;;;;;;;9.91;63.59;102403.69;2111812;28;20122;-93
2022/03/27 00:40:50;;;;;;;10.35;4.22;;;;;;;9.88;63.48;102408.81;2103322;28;20110;-92
2022/03/27 00:42:13;;;;;;;7.38;4.10;;;;;;;9.85;63.51;102403.38;2093227;28;20408;-93
2022/03/27 00:43:39;;;;;;;8.45;4.45;;;;;;;9.82;63.58;102401.53;2092848;28;20076;-92
2022/03/27 00:45:02;;;;;;;10.65;4.88;;;;;;;9.82;63.45;102408.53;2113022;27;20039;-92
2022/03/27 00:46:25;;;;;;;17.60;5.57;;;;;;;9.82;63.28;102403.25;2108041;28;21046;-93
2022/03/27 00:47:46;;;;;;;11.43;4.50;;;;;;;9.81;63.23;102409.34;2111989;28;20465;-91
2022/03/27 00:49:08;;;;;;;12.20;5.13;;;;;;;9.80;63.36;102407.53;2101604;28;20074;-92
2022/03/27 00:50:31;;;;;;;8.27;4.50;;;;;;;9.78;63.25;102414.50;2115682;27;20055;-91
2022/03/27 00:51:54;;;;;;;11.10;5.47;;;;;;;9.76;63.10;102422.34;2113970;28;20047;-92
2022/03/27 00:53:18;;;;;;;11.13;5.53;;;;;;;9.71;63.25;102417.69;2112235;28;20050;-92
2022/03/27 00:54:41;;;;;;;12.70;5.70;;;;;;;9.64;63.26;102426.16;2111795;28;20059;-91
2022/03/27 00:56:03;;;;;;;9.90;6.20;;;;;;;9.63;63.18;102413.81;2112142;27;20134;-90
2022/03/27 00:57:26;;;;;;;10.77;5.45;;;;;;;9.60;63.18;102420.72;2111474;28;20039;-91
2022/03/27 00:58:48;;;;;;;9.63;5.90;;;;;;;9.60;63.06;102414.53;2109191;28;20468;-91
2022/03/27 01:00:20;;;;;;;7.70;4.10;;;;;;;9.60;63.19;102426.00;2111579;28;20036;-90
2022/03/27 01:01:44;;;;;;;10.20;5.35;;;;;;;9.57;62.98;102424.97;2110506;28;20039;-90
2022/03/27 01:03:06;;;;;;;11.70;5.70;;;;;;;9.50;63.21;102422.88;2103815;28;20131;-91
2022/03/27 01:04:28;;;;;;;12.48;6.00;;;;;;;9.44;63.40;102426.13;2108080;28;20040;-91
2022/03/27 01:05:50;;;;;;;13.52;6.82;;;;;;;9.40;63.44;102429.44;2113338;28;20059;-90
2022/03/27 01:07:14;;;;;;;14.57;6.82;;;;;;;9.40;63.50;102432.06;2120281;27;20116;-92
2022/03/27 01:10:24;;;;;;;11.30;5.85;;;;;;;9.46;63.35;102426.19;2118591;27;20070;-91
2022/03/27 01:11:47;;;;;;;10.98;5.60;;;;;;;9.44;63.08;102426.13;2109336;28;20139;-91
2022/03/27 01:13:13;;;;;;;8.52;4.75;;;;;;;9.45;63.02;102433.19;2106807;28;20063;-91
2022/03/27 01:14:35;;;;;;;10.82;5.95;;;;;;;9.43;62.45;102432.22;2118721;27;20043;-88
2022/03/27 01:15:58;;;;;;;10.00;5.10;;;;;;;9.43;62.44;102436.59;2106162;28;20093;-91
2022/03/27 01:17:25;;;;;;;12.43;5.47;;;;;;;9.42;62.11;102433.06;2107808;28;20075;-90
2022/03/27 01:18:46;;;;;;;8.98;5.28;;;;;;;9.40;61.76;102424.16;2109074;28;20386;-91
2022/03/27 01:20:17;;;;;;;12.90;5.63;;;;;;;9.38;61.88;102424.94;2109821;28;20043;-91
2022/03/27 01:21:40;;;;;;;10.68;5.40;;;;;;;9.37;61.85;102431.03;2112698;28;20072;-91
2022/03/27 01:23:08;;;;;;;10.10;6.28;;;;;;;9.37;61.96;102431.03;2120051;27;20306;-91
2022/03/27 01:24:30;;;;;;;17.55;10.43;;;;;;;9.33;61.82;102426.44;2115327;27;20043;-91
2022/03/27 01:25:52;;;;;;;10.65;6.85;;;;;;;9.29;62.02;102432.41;2111790;28;20140;-90
2022/03/27 01:27:18;;;;;;;10.65;6.65;;;;;;;9.25;62.13;102431.38;2100304;28;20597;-92
2022/03/27 01:28:42;;;;;;;13.07;6.35;;;;;;;9.23;62.45;102432.13;2109714;28;20491;-91
2022/03/27 01:30:08;;;;;;;10.43;6.03;;;;;;;9.21;62.35;102424.13;2118552;27;20051;-91
2022/03/27 01:31:30;;;;;;;13.07;6.72;;;;;;;9.21;62.39;102424.13;2111858;28;20051;-92
2022/03/27 01:32:56;;;;;;;12.48;7.20;;;;;;;9.20;62.35;102417.97;2111505;28;20099;-91
2022/03/27 01:34:23;;;;;;;19.27;11.07;;;;;;;9.16;62.66;102423.91;2112266;28;20048;-91
2022/03/27 01:35:47;;;;;;;16.30;9.27;;;;;;;9.15;62.56;102423.84;2110835;28;20088;-91
2022/03/27 01:37:13;;;;;;;19.80;10.30;;;;;;;9.15;62.28;102415.94;2101798;28;20078;-91
2022/03/27 01:38:37;;;;;;;21.98;11.57;;;;;;;9.11;62.28;102420.16;2109824;28;20107;-91
2022/03/27 01:40:01;;;;;;;25.00;12.43;;;;;;;9.10;62.39;102422.72;2111957;28;20094;-91
2022/03/27 01:41:23;;;;;;;13.20;7.82;;;;;;;9.10;62.07;102422.72;2101264;28;20072;-91
2022/03/27 01:42:53;;;;;;;10.15;5.63;;;;;;;9.12;62.23;102421.06;2108121;28;20051;-90
2022/03/27 01:44:16;;;;;;;14.45;8.40;;;;;;;9.09;61.87;102413.00;2111305;28;20046;-90
2022/03/27 01:45:41;;;;;;;14.57;7.35;;;;;;;9.07;61.67;102414.66;2102180;28;20056;-91
2022/03/27 01:47:05;;;;;;;14.98;7.60;;;;;;;9.06;61.53;102410.22;2108722;28;20035;-91
2022/03/27 01:48:27;;;;;;;14.23;7.78;;;;;;;9.05;61.50;102418.97;2110901;28;20047;-92
2022/03/27 01:49:52;;;;;;;15.07;7.13;;;;;;;9.03;61.49;102417.97;2093736;28;20051;-90
2022/03/27 01:51:20;;;;;;;12.38;5.78;;;;;;;9.01;61.46;102420.53;2105254;28;20036;-89
2022/03/27 01:52:44;;;;;;;14.25;6.05;;;;;;;8.97;61.63;102425.59;2103622;28;20129;-93
2022/03/27 01:54:07;;;;;;;13.57;6.57;;;;;;;8.94;61.54;102430.69;2108067;28;20067;-92
2022/03/27 01:55:28;;;;;;;17.38;10.00;;;;;;;8.80;61.82;102423.03;2110442;28;20078;-92
2022/03/27 01:56:51;;;;;;;39.88;25.35;;;;;;;8.60;62.18;102421.13;2110128;28;20055;-92
2022/03/27 01:58:13;;;;;;;14.98;7.35;;;;;;;8.52;62.62;102427.75;2102909;28;20127;-92
2022/03/27 01:59:36;;;;;;;10.20;5.72;;;;;;;8.56;62.89;102434.06;2108656;28;20059;-92
2022/03/27 02:00:58;;;;;;;11.48;6.72;;;;;;;8.60;62.72;102426.38;2113864;28;20082;-92
2022/03/27 02:02:27;;;;;;;12.38;5.13;;;;;;;8.65;62.79;102430.19;2102438;28;20075;-92
2022/03/27 02:03:49;;;;;;;11.52;5.78;;;;;;;8.70;62.59;102426.03;2109923;28;20486;-92
2022/03/27 02:05:14;;;;;;;;;;;;;;;8.73;62.22;102428.81;2110483;28;20491;-91
2022/03/27 02:06:39;;;;;;;13.00;6.03;;;;;;;8.74;62.20;102435.88;2094770;28;19932;-92
2022/03/27 02:08:01;;;;;;;10.23;5.10;;;;;;;8.71;62.21;102441.00;2098874;28;20040;-92
2022/03/27 02:09:23;;;;;;;9.85;4.80;;;;;;;8.72;62.13;102427.03;2106819;28;20411;-93
2022/03/27 02:10:46;;;;;;;12.38;6.50;;;;;;;8.71;61.93;102433.13;2113259;28;20679;-93
2022/03/27 02:12:09;;;;;;;12.57;7.70;;;;;;;8.67;61.84;102424.97;2114973;27;20138;-93
2022/03/27 02:13:32;;;;;;;11.68;6.10;;;;;;;8.65;62.15;102430.19;2111340;28;20048;-93
2022/03/27 02:14:56;;;;;;;11.63;5.63;;;;;;;8.67;62.00;102432.84;2110323;28;20078;-93
2022/03/27 02:16:20;;;;;;;12.43;5.97;;;;;;;8.65;61.63;102430.19;2110592;27;20051;-92
2022/03/27 02:17:42;;;;;;;9.75;5.85;;;;;;;8.64;61.51;102428.38;2094115;28;20482;-93
2022/03/27 02:19:08;;;;;;;11.38;6.45;;;;;;;8.65;61.42;102430.19;2099222;28;20046;-93
2022/03/27 02:20:30;;;;;;;10.30;5.32;;;;;;;8.59;61.35;102429.88;2098905;28;20681;-91
2022/03/27 02:21:55;;;;;;;9.98;5.50;;;;;;;8.60;61.48;102431.66;2099277;28;20496;-90
2022/03/27 02:23:17;;;;;;;9.70;5.75;;;;;;;8.57;61.60;102431.50;2100001;28;20086;-91
2022/03/27 02:24:39;;;;;;;12.93;6.25;;;;;;;8.55;61.62;102430.53;2101162;28;20511;-93
2022/03/27 02:26:02;;;;;;;10.57;6.35;;;;;;;8.58;61.72;102438.59;2116064;27;20491;-93
2022/03/27 02:27:26;;;;;;;10.90;6.03;;;;;;;8.60;61.45;102436.03;2105239;28;20048;-94
2022/03/27 02:29:02;;;;;;;11.75;5.78;;;;;;;8.59;61.46;102437.78;2108951;28;20076;-91
2022/03/27 02:30:23;;;;;;;13.73;5.72;;;;;;;8.61;61.39;102435.19;2096193;28;20459;-91
2022/03/27 02:31:46;;;;;;;;;;;;;;;8.61;61.42;102438.72;2108385;28;20063;-91
2022/03/27 02:33:10;;;;;;;10.23;5.38;;;;;;;8.60;61.18;102436.03;2111305;28;19920;-90
2022/03/27 02:34:34;;;;;;;12.45;5.00;;;;;;;8.60;61.02;102441.31;2102911;28;20048;-91
2022/03/27 02:35:58;;;;;;;9.40;5.22;;;;;;;8.59;60.96;102450.94;2093411;28;20036;-91
2022/03/27 02:37:25;;;;;;;13.60;5.32;;;;;;;8.58;61.04;102438.59;2097696;28;20126;-89
2022/03/27 02:38:48;;;;;;;13.02;7.22;;;;;;;8.56;61.16;102440.22;2100478;28;20044;-89
2022/03/27 02:40:15;;;;;;;15.90;8.05;;;;;;;8.54;61.15;102440.97;2107931;28;20058;-89
2022/03/27 02:41:37;;;;;;;17.52;9.38;;;;;;;8.52;61.12;102453.16;2110708;28;20039;-91
2022/03/27 02:42:59;;;;;;;13.60;8.30;;;;;;;8.50;61.29;102445.19;2106958;28;20047;-89
2022/03/27 02:44:23;;;;;;;15.82;8.40;;;;;;;8.50;61.23;102442.56;2095964;28;20048;-89
2022/03/27 02:45:50;;;;;;;14.48;7.93;;;;;;;8.50;61.45;102454.81;2109192;28;20105;-88
2022/03/27 02:47:13;;;;;;;11.88;6.80;;;;;;;8.50;61.53;102445.19;2103317;28;20036;-88
2022/03/27 02:48:36;;;;;;;11.88;6.82;;;;;;;8.51;61.22;102446.09;2104691;28;20050;-89
2022/03/27 02:49:59;;;;;;;10.88;5.38;;;;;;;8.51;61.33;102444.38;2109128;28;20135;-88
2022/03/27 02:51:21;;;;;;;11.27;5.55;;;;;;;8.50;61.37;102449.53;2110416;28;20052;-88
2022/03/27 02:52:45;;;;;;;11.43;6.20;;;;;;;8.49;61.19;102453.91;2110965;28;20071;-89
2022/03/27 02:54:08;;;;;;;11.65;5.10;;;;;;;8.46;61.43;102453.75;2101640;28;20051;-88
2022/03/27 02:55:31;;;;;;;12.40;6.13;;;;;;;8.45;61.23;102445.78;2108147;28;20560;-87
2022/03/27 02:56:54;;;;;;;13.18;6.90;;;;;;;8.43;61.33;102450.06;2085591;28;20444;-87
2022/03/27 02:58:15;;;;;;;11.73;6.28;;;;;;;8.39;61.36;102449.00;2109710;28;20444;-89
2022/03/27 02:59:39;;;;;;;12.00;7.10;;;;;;;8.33;61.51;102452.22;2119592;28;20047;-90
2022/03/27 03:01:02;;;;;;;12.50;7.00;;;;;;;8.30;61.39;102456.38;2119436;28;20043;-91
2022/03/27 03:02:25;;;;;;;11.45;5.70;;;;;;;8.30;61.34;102457.31;2102866;28;20048;-88
2022/03/27 03:03:48;;;;;;;10.15;5.57;;;;;;;8.31;61.38;102459.13;2110727;28;20441;-88
2022/03/27 03:05:11;;;;;;;11.88;5.18;;;;;;;8.33;61.20;102462.75;2108831;28;20042;-88
2022/03/27 03:06:33;;;;;;;10.77;5.68;;;;;;;8.35;61.16;102462.81;2102084;28;20409;-88
2022/03/27 03:07:59;;;;;;;12.07;5.60;;;;;;;8.32;61.04;102460.03;2106763;28;20398;-88
2022/03/27 03:09:23;;;;;;;11.05;5.60;;;;;;;8.26;60.92;102463.22;2110001;28;20660;-88
2022/03/27 03:10:46;;;;;;;12.00;5.45;;;;;;;8.21;60.93;102461.16;2101998;28;20040;-89
2022/03/27 03:12:10;;;;;;;13.05;6.18;;;;;;;8.16;61.18;102465.28;2100417;28;20048;-91
2022/03/27 03:13:33;;;;;;;9.70;5.60;;;;;;;8.12;60.93;102465.94;2108519;28;20047;-91
2022/03/27 03:14:58;;;;;;;12.88;6.35;;;;;;;8.10;61.09;102468.50;2111298;28;20134;-92
2022/03/27 03:16:22;;;;;;;12.50;6.85;;;;;;;8.12;60.75;102468.56;2118444;28;20586;-91
2022/03/27 03:17:44;;;;;;;15.60;6.93;;;;;;;8.10;60.93;102475.47;2121993;28;20055;-91
2022/03/27 03:19:07;;;;;;;11.95;6.75;;;;;;;8.10;60.84;102468.50;2112126;28;20050;-90
2022/03/27 03:20:30;;;;;;;12.13;7.53;;;;;;;8.11;60.68;102474.66;2107208;28;20423;-91
2022/03/27 03:21:52;;;;;;;14.77;7.95;;;;;;;8.11;60.70;102475.56;2113340;28;20039;-91
2022/03/27 03:23:16;;;;;;;13.77;7.85;;;;;;;8.12;60.84;102471.22;2102460;28;20043;-91
2022/03/27 03:24:38;;;;;;;24.60;13.65;;;;;;;8.09;60.75;102477.19;2110904;28;20170;-91
2022/03/27 03:26:01;;;;;;;25.67;14.20;;;;;;;8.09;60.68;102477.19;2103594;28;20140;-92
2022/03/27 03:27:22;;;;;;;33.50;20.77;;;;;;;8.09;60.90;102489.44;2107614;28;20040;-91
2022/03/27 03:28:45;;;;;;;43.20;25.23;;;;;;;8.08;61.11;102490.25;2110760;28;20491;-91
2022/03/27 03:30:10;;;;;;;27.10;13.32;;;;;;;8.05;61.14;102483.13;2102122;28;20056;-91
2022/03/27 03:31:31;;;;;;;28.73;13.60;;;;;;;8.05;61.24;102492.75;2101657;28;20127;-92
2022/03/27 03:32:54;;;;;;;13.55;7.63;;;;;;;8.02;61.10;102497.00;2094215;28;20056;-91
2022/03/27 03:34:16;;;;;;;15.65;7.35;;;;;;;8.02;61.27;102490.84;2107585;28;20498;-91
2022/03/27 03:35:41;;;;;;;14.85;6.70;;;;;;;8.01;61.27;102496.91;2110125;28;20541;-94
2022/03/27 03:37:04;;;;;;;12.05;6.45;;;;;;;7.99;61.22;102494.22;2106426;28;20047;-91
2022/03/27 03:38:28;;;;;;;14.88;6.65;;;;;;;7.98;61.20;102504.66;2109521;28;20055;-91
2022/03/27 03:39:49;;;;;;;12.27;5.97;;;;;;;7.95;61.66;102494.88;2106844;28;20048;-90
2022/03/27 03:41:12;;;;;;;11.00;6.32;;;;;;;7.93;61.57;102496.53;2114477;27;20518;-91
2022/03/27 03:42:33;;;;;;;38.60;20.60;;;;;;;7.92;61.56;102494.72;2106559;28;20048;-91
2022/03/27 03:43:56;;;;;;;22.88;11.20;;;;;;;7.93;61.52;102495.63;2111859;28;20047;-91
2022/03/27 03:45:19;;;;;;;15.40;8.65;;;;;;;7.94;61.53;102500.94;2109811;28;20390;-91
2022/03/27 03:46:41;;;;;;;9.77;4.75;;;;;;;7.88;61.61;102495.34;2112202;28;20032;-88
2022/03/27 03:48:05;;;;;;;12.02;5.75;;;;;;;7.87;61.62;102497.91;2097796;28;20040;-90
2022/03/27 03:49:28;;;;;;;12.05;5.88;;;;;;;7.87;61.96;102501.47;2107984;28;20103;-89
2022/03/27 03:50:51;;;;;;;14.88;6.57;;;;;;;7.88;61.80;102503.25;2091772;28;20071;-89
2022/03/27 03:52:12;;;;;;;14.88;6.75;;;;;;;7.88;61.88;102502.34;2100597;28;20092;-91
2022/03/27 03:53:42;;;;;;;13.07;7.00;;;;;;;7.90;61.94;102504.22;2104380;28;20136;-91
2022/03/27 03:55:06;;;;;;;13.50;7.03;;;;;;;7.90;61.89;102508.59;2111265;28;20085;-89
2022/03/27 03:56:29;;;;;;;16.38;7.88;;;;;;;7.91;61.97;102510.41;2103932;28;20523;-88
2022/03/27 03:57:51;;;;;;;15.85;8.75;;;;;;;7.91;61.95;102510.41;2108082;28;20084;-88
2022/03/27 03:59:15;;;;;;;13.55;6.88;;;;;;;7.89;61.77;102512.94;2111635;28;20048;-89
2022/03/27 04:00:38;;;;;;;19.23;10.05;;;;;;;7.85;62.08;102508.34;2110955;27;20039;-90
2022/03/27 04:02:00;;;;;;;20.42;11.45;;;;;;;7.83;62.23;102515.22;2120610;27;20109;-90
2022/03/27 04:03:22;;;;;;;;;;;;;;;7.78;62.25;102516.72;2104509;28;20047;-90
2022/03/27 04:04:46;;;;;;;24.83;14.25;;;;;;;7.74;62.28;102514.75;2098239;28;19924;-90
2022/03/27 04:06:11;;;;;;;29.27;18.02;;;;;;;7.74;62.33;102514.75;2101279;28;20044;-90
2022/03/27 04:07:35;;;;;;;31.50;20.08;;;;;;;7.73;62.51;102518.19;2108164;28;20055;-88
2022/03/27 04:09:00;;;;;;;18.65;11.63;;;;;;;7.73;62.56;102518.19;2110239;28;20526;-89
2022/03/27 04:10:23;;;;;;;19.00;11.73;;;;;;;7.69;62.55;102516.19;2109916;28;20052;-90
2022/03/27 04:11:47;;;;;;;27.42;17.45;;;;;;;7.70;62.51;102512.75;2103809;28;20138;-92
2022/03/27 04:13:11;;;;;;;27.90;19.25;;;;;;;7.70;62.47;102517.09;2110923;28;20131;-92
2022/03/27 04:14:36;;;;;;;32.83;19.25;;;;;;;7.69;62.32;102515.28;2103032;28;20651;-92
2022/03/27 04:15:57;;;;;;;30.88;17.60;;;;;;;7.68;62.21;102513.50;2107312;28;20171;-92
2022/03/27 04:17:22;;;;;;;28.40;17.50;;;;;;;7.68;62.39;102519.63;2109986;28;20044;-93
2022/03/27 04:18:47;;;;;;;20.27;11.75;;;;;;;7.69;62.33;102523.16;2110881;28;20533;-92
2022/03/27 04:20:12;;;;;;;20.58;11.50;;;;;;;7.68;62.38;102522.25;2095282;28;20040;-89
2022/03/27 04:21:36;;;;;;;17.80;10.23;;;;;;;7.67;62.41;102515.22;2108361;28;20066;-91
2022/03/27 04:22:59;;;;;;;13.82;7.47;;;;;;;7.68;62.71;102524.03;2114347;27;20086;-89
2022/03/27 04:24:24;;;;;;;15.60;8.82;;;;;;;7.69;62.99;102521.44;2101376;28;20056;-89
2022/03/27 04:25:47;;;;;;;15.73;8.10;;;;;;;7.71;62.95;102518.91;2110009;28;20171;-89
2022/03/27 04:27:11;;;;;;;14.52;8.00;;;;;;;7.75;63.05;102521.78;2110560;28;20059;-89
2022/03/27 04:28:35;;;;;;;15.07;8.40;;;;;;;7.80;62.81;102524.69;2112252;28;20067;-92
2022/03/27 04:29:58;;;;;;;14.45;8.25;;;;;;;7.83;62.90;102517.88;2105740;28;20051;-92
2022/03/27 04:31:21;;;;;;;18.60;8.95;;;;;;;7.89;63.03;102520.81;2105594;28;20044;-90
2022/03/27 04:32:42;;;;;;;19.33;10.05;;;;;;;7.98;62.99;102515.19;2112017;28;20056;-90
2022/03/27 04:34:05;;;;;;;;;;;;;;;8.05;62.92;102522.56;2110266;28;20096;-90
2022/03/27 04:35:31;;;;;;;26.33;13.52;;;;;;;8.13;62.76;102526.53;2103758;28;20322;-90
2022/03/27 04:37:00;;;;;;;20.67;11.10;;;;;;;8.21;62.86;102526.91;2101696;28;20442;-90
2022/03/27 04:38:23;;;;;;;38.50;25.23;;;;;;;8.26;62.69;102523.72;2106204;28;20055;-90
2022/03/27 04:39:46;;;;;;;32.72;21.70;;;;;;;8.33;62.81;102531.16;2111941;28;20047;-90
2022/03/27 04:41:09;;;;;;;20.90;12.70;;;;;;;8.38;62.74;102527.03;2106047;28;20121;-90
2022/03/27 04:42:30;;;;;;;25.35;13.15;;;;;;;8.46;62.73;102543.25;2111120;28;20044;-91
2022/03/27 04:43:53;;;;;;;17.60;9.80;;;;;;;8.56;63.01;102540.25;2111001;28;20040;-90
2022/03/27 04:45:15;;;;;;;17.75;8.23;;;;;;;8.69;62.86;102537.44;2104966;28;20052;-91
2022/03/27 04:46:38;;;;;;;11.32;5.50;;;;;;;8.83;62.56;102534.59;2100087;28;20048;-92
2022/03/27 04:48:01;;;;;;;11.70;5.13;;;;;;;8.92;62.63;102532.44;2108045;28;20418;-91
2022/03/27 04:49:23;;;;;;;15.88;7.70;;;;;;;9.01;62.79;102528.53;2120212;27;20051;-91
2022/03/27 04:50:45;;;;;;;22.10;10.23;;;;;;;9.10;62.82;102530.72;2104159;28;20073;-91
2022/03/27 04:52:08;;;;;;;11.38;5.60;;;;;;;9.19;62.81;102534.72;2109788;28;20050;-89
2022/03/27 04:53:32;;;;;;;10.18;5.10;;;;;;;9.30;62.88;102530.00;2101836;28;20048;-91
2022/03/27 04:55:00;;;;;;;9.90;4.80;;;;;;;9.42;62.91;102530.59;2116769;27;20418;-92
2022/03/27 04:56:22;;;;;;;11.18;5.70;;;;;;;9.53;62.91;102533.72;2116685;27;20035;-91
2022/03/27 04:57:45;;;;;;;15.15;8.02;;;;;;;9.65;62.86;102530.81;2105882;28;20055;-89
2022/03/27 04:59:07;;;;;;;17.45;8.90;;;;;;;9.75;63.08;102533.94;2111884;28;20055;-90
2022/03/27 05:00:32;;;;;;;19.98;9.48;;;;;;;9.86;63.18;102531.78;2111776;28;20526;-90
2022/03/27 05:01:55;;;;;;;14.80;6.90;;;;;;;9.98;63.06;102535.00;2102137;28;20051;-91
2022/03/27 05:03:21;;;;;;;10.05;5.57;;;;;;;10.09;63.31;102540.78;2099486;28;20051;-90
2022/03/27 05:04:42;;;;;;;13.38;5.20;;;;;;;10.17;63.21;102532.44;2109927;28;20104;-90
2022/03/27 05:06:07;;;;;;;13.35;5.32;;;;;;;10.27;63.15;102539.91;2102490;28;20051;-90
2022/03/27 05:07:29;;;;;;;9.82;4.07;;;;;;;10.34;63.20;102536.72;2107337;28;20032;-91
2022/03/27 05:08:52;;;;;;;9.10;4.57;;;;;;;10.47;63.22;102540.81;2102941;28;20063;-91
2022/03/27 05:10:15;;;;;;;10.02;4.53;;;;;;;10.64;63.52;102536.25;2110569;28;20499;-92
2022/03/27 05:11:38;;;;;;;7.80;4.10;;;;;;;10.77;63.54;102543.88;2111884;28;20050;-91
2022/03/27 05:13:01;;;;;;;8.77;5.00;;;;;;;10.93;63.42;102546.38;2113107;28;20098;-86
2022/03/27 05:14:23;;;;;;;14.00;5.63;;;;;;;11.09;63.66;102537.34;2117798;27;20506;-85
2022/03/27 05:15:46;;;;;;;13.27;6.50;;;;;;;11.16;63.42;102544.69;2114258;28;20043;-86
2022/03/27 05:17:09;;;;;;;12.23;6.22;;;;;;;11.25;63.57;102550.34;2109788;28;20402;-87
2022/03/27 05:18:31;;;;;;;10.30;6.32;;;;;;;11.40;63.58;102539.53;2108581;28;20091;-89
2022/03/27 05:19:52;;;;;;;11.68;6.93;;;;;;;11.57;63.60;102546.38;2110590;28;20561;-90
2022/03/27 05:21:15;;;;;;;12.07;6.40;;;;;;;11.71;63.24;102542.53;2103081;28;20047;-90
2022/03/27 05:22:37;;;;;;;12.52;6.40;;;;;;;11.84;63.31;102536.94;2106280;28;20065;-89
2022/03/27 05:23:59;;;;;;;13.27;6.25;;;;;;;12.00;63.14;102538.44;2111149;28;20036;-91
2022/03/27 05:25:24;;;;;;;11.93;6.20;;;;;;;12.17;62.86;102547.00;2110248;28;20044;-90
2022/03/27 05:26:46;;;;;;;11.93;5.15;;;;;;;12.26;62.78;102540.31;2102660;28;20051;-93
2022/03/27 05:28:10;;;;;;;8.45;4.15;;;;;;;12.44;62.77;102541.84;2106265;28;20509;-89
2022/03/27 05:29:31;;;;;;;11.30;4.53;;;;;;;12.61;62.64;102541.59;2100947;28;20040;-87
2022/03/27 05:31:08;;;;;;;7.70;4.25;;;;;;;12.77;62.40;102543.94;2106175;28;20051;-89
2022/03/27 05:32:40;;;;;;;10.40;4.40;;;;;;;12.95;62.41;102532.16;2113881;28;20106;-90
2022/03/27 05:34:04;;;;;;;9.30;4.50;;;;;;;13.11;62.45;102537.16;2108447;28;20043;-89
2022/03/27 05:35:25;;;;;;;9.05;4.15;;;;;;;13.30;62.37;102541.34;2117143;27;20569;-86
2022/03/27 05:36:48;;;;;;;10.95;4.47;;;;;;;13.48;62.12;102541.94;2100022;28;20049;-86
2022/03/27 05:38:10;;;;;;;14.02;5.13;;;;;;;13.62;61.95;102542.38;2105253;28;20072;-87
2022/03/27 05:39:32;;;;;;;9.18;4.30;;;;;;;13.77;61.65;102538.47;2108275;28;20147;-86
2022/03/27 05:40:55;;;;;;;8.32;4.25;;;;;;;13.94;61.29;102534.56;2111157;28;20063;-85
2022/03/27 05:42:17;;;;;;;9.00;4.13;;;;;;;14.10;61.06;102533.28;2109301;28;20100;-84
2022/03/27 05:43:39;;;;;;;8.82;4.13;;;;;;;14.24;60.82;102542.53;2112842;28;20144;-90
2022/03/27 05:45:00;;;;;;;9.85;4.53;;;;;;;14.39;60.55;102542.13;2101852;28;20047;-90
2022/03/27 05:46:23;;;;;;;8.45;4.40;;;;;;;14.55;60.32;102541.72;2115360;27;20087;-88
2022/03/27 05:47:46;;;;;;;8.20;3.90;;;;;;;14.70;60.01;102536.78;2110130;28;20070;-89
2022/03/27 05:49:08;;;;;;;8.80;3.78;;;;;;;14.87;59.83;102541.69;2113567;28;20571;-88
2022/03/27 05:50:31;;;;;;;12.73;5.10;;;;;;;15.02;59.81;102542.09;2111434;28;20678;-87
2022/03/27 05:51:54;;;;;;;8.52;3.83;;;;;;;15.14;59.48;102539.75;2110137;28;20044;-87
2022/03/27 05:53:17;;;;;;;13.23;4.68;;;;;;;15.32;59.43;102531.31;2111255;28;20054;-87
2022/03/27 05:54:39;;;;;;;8.63;4.63;;;;;;;15.49;59.21;102536.16;2102548;28;20093;-88
2022/03/27 05:56:03;;;;;;;8.38;4.60;;;;;;;15.67;59.10;102529.53;2091595;28;20048;-88
2022/03/27 05:57:24;;;;;;;10.20;4.35;;;;;;;15.87;58.80;102542.44;2095535;28;20063;-89
2022/03/27 05:58:47;;;;;;;8.75;4.72;;;;;;;16.05;58.40;102535.72;2103942;28;20086;-90
2022/03/27 06:00:12;;;;;;;7.97;4.70;;;;;;;16.21;58.06;102536.06;2102800;28;20035;-89
2022/03/27 06:01:39;;;;;;;10.30;4.63;;;;;;;16.35;57.84;102539.00;2103427;28;20054;-89
2022/03/27 06:03:02;;;;;;;10.02;5.20;;;;;;;16.47;57.40;102535.72;2108500;28;20486;-90
2022/03/27 06:04:23;;;;;;;12.15;6.75;;;;;;;16.54;57.18;102535.84;2096612;28;20135;-90
2022/03/27 06:05:46;;;;;;;10.20;5.35;;;;;;;16.70;56.94;102531.75;2106835;28;20052;-89
2022/03/27 06:07:09;;;;;;;10.93;5.03;;;;;;;16.92;56.87;102533.06;2108773;28;20048;-88
2022/03/27 06:08:31;;;;;;;13.20;5.50;;;;;;;17.11;56.77;102536.06;2104756;28;20518;-89
2022/03/27 06:09:54;;;;;;;9.50;4.90;;;;;;;17.24;56.50;102534.50;2108507;28;20139;-89
2022/03/27 06:11:17;;;;;;;12.75;6.90;;;;;;;17.28;56.41;102541.69;2108190;28;20483;-89
2022/03/27 06:12:39;;;;;;;9.88;5.10;;;;;;;17.42;56.38;102541.91;2109265;28;20043;-89
2022/03/27 06:14:02;;;;;;;9.27;4.70;;;;;;;17.61;56.06;102540.44;2108608;27;20142;-88
2022/03/27 06:15:26;;;;;;;8.95;4.78;;;;;;;17.80;55.73;102548.75;2106126;27;20131;-89
2022/03/27 06:16:48;;;;;;;12.27;5.50;;;;;;;17.92;55.30;102553.38;2108651;28;20044;-88
2022/03/27 06:18:11;;;;;;;8.63;5.70;;;;;;;17.93;54.97;102549.84;2102336;28;20047;-88
2022/03/27 06:19:33;;;;;;;12.05;5.38;;;;;;;18.07;54.68;102553.59;2101169;28;20055;-89
2022/03/27 06:20:55;;;;;;;11.77;5.30;;;;;;;18.21;54.25;102565.38;2101091;28;20097;-88
2022/03/27 06:22:17;;;;;;;8.48;4.15;;;;;;;18.38;53.68;102562.03;2106809;28;20052;-89
2022/03/27 06:23:40;;;;;;;7.20;4.20;;;;;;;18.49;53.11;102560.38;2117183;27;20057;-90
2022/03/27 06:25:01;;;;;;;7.22;4.38;;;;;;;18.65;52.81;102557.94;2096912;28;20456;-89
2022/03/27 06:26:26;;;;;;;7.35;4.22;;;;;;;18.80;52.55;102554.53;2091633;28;20052;-89
2022/03/27 06:27:48;;;;;;;11.32;4.50;;;;;;;18.85;52.58;102558.13;2107174;28;20072;-90
2022/03/27 06:29:13;;;;;;;8.35;4.82;;;;;;;18.99;52.57;102555.59;2106936;28;20059;-90
2022/03/27 06:30:36;;;;;;;8.77;6.00;;;;;;;19.15;52.70;102553.97;2111446;28;20545;-91
2022/03/27 06:31:58;;;;;;;11.15;4.68;;;;;;;19.25;52.24;102547.81;2094125;28;20832;-90